Time;durP1;ratioP1;P1;durP2;ratioP2;P2;SDS_P1;SDS_P2;PMS_P1;PMS_P2;Temp;Humidity;BMP_temperature;BMP_pressure;BME280_temperature;BME280_humidity;BME280_pressure;Samples;Min_cycle;Max_cycle;Signal;HPM_P1;HPM_P2
2022/07/05 00:01:24;;;;;;;2.23;1.20;;;;;;;15.19;68.59;98971.34;5044731;28;20219;-50
2022/07/05 00:03:52;;;;;;;1.70;1.20;;;;;;;15.12;67.49;98973.81;5050842;28;20243;-50
2022/07/05 00:06:19;;;;;;;2.20;0.90;;;;;;;15.05;68.02;98964.97;5051473;28;20200;-50
2022/07/05 00:08:46;;;;;;;1.20;1.10;;;;;;;15.03;68.32;98962.53;5053395;28;20231;-50
2022/07/05 00:11:13;;;;;;;5.03;1.20;;;;;;;15.02;67.92;98953.00;5053203;28;20217;-51
2022/07/05 00:13:41;;;;;;;2.37;1.10;;;;;;;14.99;68.61;98953.34;5053323;28;20223;-50
2022/07/05 00:16:08;;;;;;;3.93;1.20;;;;;;;14.98;69.50;98958.75;5053194;28;20195;-50
2022/07/05 00:18:35;;;;;;;2.53;1.10;;;;;;;14.94;68.77;98955.66;5053548;28;20188;-51
2022/07/05 00:21:22;;;;;;;2.90;1.17;;;;;;;14.98;68.99;98950.88;5053719;28;20226;-51
2022/07/05 00:23:49;;;;;;;3.50;1.47;;;;;;;14.95;69.52;98948.59;5053625;28;20188;-50
2022/07/05 00:26:16;;;;;;;3.63;1.03;;;;;;;14.94;68.77;98947.78;5053301;28;20187;-49
2022/07/05 00:28:44;;;;;;;1.17;1.00;;;;;;;14.89;68.55;98950.91;5053646;28;20234;-50
2022/07/05 00:31:12;;;;;;;2.83;1.20;;;;;;;14.88;68.50;98951.91;5052087;28;20281;-52
2022/07/05 00:33:39;;;;;;;4.40;1.23;;;;;;;14.90;69.10;98957.81;5051879;28;20193;-49
2022/07/05 00:36:06;;;;;;;3.50;1.20;;;;;;;14.84;69.11;98953.22;5053239;28;20200;-49
2022/07/05 00:38:35;;;;;;;4.30;1.30;;;;;;;14.75;68.57;98949.03;5051904;28;20193;-50
2022/07/05 00:41:03;;;;;;;2.23;1.10;;;;;;;14.75;69.23;98956.91;5053236;28;20265;-49
2022/07/05 00:43:30;;;;;;;2.37;1.30;;;;;;;14.71;70.06;98950.34;5053438;28;20197;-50
2022/07/05 00:45:57;;;;;;;6.73;1.20;;;;;;;14.67;68.12;98954.28;5052030;28;20664;-49
2022/07/05 00:48:24;;;;;;;1.93;1.10;;;;;;;14.63;68.44;98958.22;5051773;28;20228;-49
2022/07/05 00:50:53;;;;;;;1.60;1.00;;;;;;;14.61;69.14;98963.63;5051992;28;20220;-50
2022/07/05 00:53:20;;;;;;;5.73;1.40;;;;;;;14.63;68.29;98960.84;5051715;28;20206;-49
2022/07/05 00:55:49;;;;;;;3.73;1.50;;;;;;;14.59;68.64;98966.44;5051754;28;20243;-50
2022/07/05 00:58:17;;;;;;;2.27;1.37;;;;;;;14.54;69.70;98963.50;5051798;28;20200;-49
2022/07/05 01:00:44;;;;;;;2.30;1.17;;;;;;;14.55;70.46;98961.69;5051542;28;20270;-50
2022/07/05 01:03:13;;;;;;;2.47;1.13;;;;;;;14.47;69.48;98967.78;5051643;28;20679;-49
2022/07/05 01:05:40;;;;;;;2.67;1.13;;;;;;;14.49;70.02;98970.22;5051468;28;20193;-49
2022/07/05 01:08:08;;;;;;;2.90;1.10;;;;;;;14.44;69.87;98957.63;5051387;28;20302;-49
2022/07/05 01:10:35;;;;;;;2.50;1.40;;;;;;;14.37;69.78;98962.69;5052949;28;20278;-49
2022/07/05 01:13:05;;;;;;;4.33;1.63;;;;;;;14.38;71.22;98960.91;5051543;28;20197;-49
2022/07/05 01:15:33;;;;;;;5.20;1.50;;;;;;;14.31;71.03;98966.00;5051363;28;20240;-49
2022/07/05 01:18:00;;;;;;;1.70;1.20;;;;;;;14.31;70.06;98958.94;5051434;28;20592;-49
2022/07/05 01:20:28;;;;;;;5.53;1.30;;;;;;;14.36;70.98;98961.06;5051178;28;20774;-49
2022/07/05 01:22:59;;;;;;;5.27;1.50;;;;;;;14.35;72.28;98962.03;5051514;28;20223;-49
2022/07/05 01:25:29;;;;;;;4.13;1.30;;;;;;;14.25;71.87;98961.44;5052808;28;20197;-50
2022/07/05 01:27:59;;;;;;;2.60;1.30;;;;;;;14.21;71.02;98958.31;5052644;28;20242;-50
2022/07/05 01:30:27;;;;;;;1.77;1.27;;;;;;;14.13;71.77;98951.28;5050920;28;20217;-49
2022/07/05 01:32:55;;;;;;;2.97;1.40;;;;;;;14.16;73.29;98960.59;5052779;28;20540;-50
2022/07/05 01:35:23;;;;;;;4.10;1.50;;;;;;;14.15;73.84;98962.41;5052580;28;20580;-49
2022/07/05 01:37:52;;;;;;;4.00;1.30;;;;;;;14.12;72.54;98969.78;5051585;28;20184;-51
2022/07/05 01:40:21;;;;;;;2.00;1.30;;;;;;;14.05;72.58;98958.31;5050857;28;20294;-50
2022/07/05 01:42:48;;;;;;;1.40;1.30;;;;;;;14.00;73.86;98961.44;5051301;28;20185;-50
2022/07/05 01:45:38;;;;;;;1.60;1.33;;;;;;;13.99;73.73;98959.81;5052440;28;20321;-52
2022/07/05 01:48:07;;;;;;;5.13;1.33;;;;;;;13.99;74.47;98960.63;5050998;28;20692;-50
2022/07/05 01:50:39;;;;;;;2.83;1.43;;;;;;;14.05;74.09;98958.31;5051037;28;20575;-49
2022/07/05 01:53:11;;;;;;;2.63;1.50;;;;;;;14.05;74.67;98960.94;5051471;28;20208;-51
2022/07/05 01:55:40;;;;;;;5.00;1.60;;;;;;;13.99;74.73;98965.06;5050744;28;20204;-50
2022/07/05 01:58:08;;;;;;;3.97;1.67;;;;;;;13.98;75.05;98953.72;5052567;28;20561;-50
2022/07/05 02:00:43;;;;;;;3.73;1.50;;;;;;;13.98;75.58;98958.97;5051808;28;20278;-53
2022/07/05 02:03:12;;;;;;;4.10;1.70;;;;;;;13.98;76.08;98961.59;5050843;28;20238;-52
2022/07/05 02:05:40;;;;;;;3.73;1.50;;;;;;;13.89;76.38;98962.56;5050885;28;20194;-53
2022/07/05 02:08:11;;;;;;;5.10;1.80;;;;;;;13.83;76.40;98961.44;5050800;28;20219;-50
2022/07/05 02:10:41;;;;;;;3.83;1.60;;;;;;;13.82;76.49;98961.59;5050560;28;20265;-50
2022/07/05 02:13:09;;;;;;;2.60;1.50;;;;;;;13.77;75.65;98962.09;5050699;28;20202;-49
2022/07/05 02:15:42;;;;;;;2.13;1.40;;;;;;;13.79;76.43;98960.13;5050790;28;20188;-50
2022/07/05 02:18:10;;;;;;;3.63;1.73;;;;;;;13.75;77.63;98961.44;5050701;28;20651;-50
2022/07/05 02:20:41;;;;;;;1.87;1.70;;;;;;;13.70;77.99;98958.47;5050508;28;20215;-50
2022/07/05 02:23:11;;;;;;;3.27;1.70;;;;;;;13.65;77.61;98963.41;5046479;28;20192;-50
2022/07/05 02:25:41;;;;;;;2.20;1.60;;;;;;;13.63;77.02;98955.69;5050348;28;20222;-49
2022/07/05 02:28:14;;;;;;;3.53;1.70;;;;;;;13.65;77.78;98964.22;5042190;28;20727;-50
2022/07/05 02:30:45;;;;;;;3.23;1.70;;;;;;;13.63;77.64;98965.34;5067056;28;20238;-50
2022/07/05 02:33:13;;;;;;;1.97;1.40;;;;;;;13.58;77.94;98966.66;5042189;28;20196;-51
2022/07/05 02:35:42;;;;;;;2.37;1.63;;;;;;;13.61;78.18;98968.16;5050303;28;20195;-49
2022/07/05 02:38:10;;;;;;;3.17;1.80;;;;;;;13.61;78.00;98962.06;5050544;28;20195;-50
2022/07/05 02:40:37;;;;;;;2.03;1.50;;;;;;;13.55;78.15;98966.19;5050315;28;20587;-49
2022/07/05 02:43:07;;;;;;;2.70;1.63;;;;;;;13.56;78.17;98970.44;5050542;28;20814;-49
2022/07/05 02:45:35;;;;;;;5.63;1.90;;;;;;;13.56;78.51;98965.19;5050317;28;20188;-49
2022/07/05 02:48:03;;;;;;;5.97;1.67;;;;;;;13.53;78.98;98971.56;5050281;28;20774;-50
2022/07/05 02:50:32;;;;;;;5.53;1.80;;;;;;;13.52;78.54;98966.50;5053844;28;20712;-50
2022/07/05 02:53:01;;;;;;;3.97;1.70;;;;;;;13.53;78.72;98968.94;5054269;28;20191;-51
2022/07/05 02:55:28;;;;;;;2.97;2.00;;;;;;;13.45;78.76;98962.88;5054212;28;20196;-49
2022/07/05 02:57:57;;;;;;;2.90;1.60;;;;;;;13.48;78.49;98962.56;5054288;28;20199;-49
2022/07/05 03:00:28;;;;;;;3.50;1.53;;;;;;;13.42;79.53;98961.38;5053759;28;20207;-49
2022/07/05 03:02:56;;;;;;;4.40;1.80;;;;;;;13.49;80.20;98964.19;5054127;28;20195;-50
2022/07/05 03:05:24;;;;;;;3.37;1.83;;;;;;;13.43;80.00;98960.41;5054118;28;20693;-50
2022/07/05 03:07:58;;;;;;;3.43;1.50;;;;;;;13.37;79.43;98964.47;5053815;28;20215;-50
2022/07/05 03:10:28;;;;;;;1.70;1.37;;;;;;;13.38;78.86;98963.50;5053644;28;20213;-50
2022/07/05 03:12:57;;;;;;;1.63;1.50;;;;;;;13.31;79.01;98957.25;5053851;28;20274;-50
2022/07/05 03:15:25;;;;;;;2.13;1.53;;;;;;;13.27;78.88;98972.47;5053660;28;20281;-49
2022/07/05 03:17:54;;;;;;;3.63;1.90;;;;;;;13.37;79.94;98967.09;5053787;28;20194;-50
2022/07/05 03:20:24;;;;;;;3.30;1.83;;;;;;;13.34;80.01;98972.66;5053443;28;20212;-50
2022/07/05 03:22:52;;;;;;;1.87;1.43;;;;;;;13.23;80.72;98970.31;5053628;28;20192;-50
2022/07/05 03:25:24;;;;;;;4.80;2.10;;;;;;;13.20;80.22;98970.66;5053571;28;20214;-53
2022/07/05 03:27:53;;;;;;;3.40;1.80;;;;;;;13.24;80.55;98977.22;5053491;28;20667;-50
2022/07/05 03:30:21;;;;;;;4.50;1.83;;;;;;;13.24;81.01;98978.06;5053216;28;20269;-51
2022/07/05 03:32:48;;;;;;;2.67;1.70;;;;;;;13.18;80.47;98988.34;5054762;28;20203;-51
2022/07/05 03:35:17;;;;;;;5.30;1.70;;;;;;;13.20;79.76;98974.09;5054543;28;20191;-50
2022/07/05 03:37:48;;;;;;;4.60;1.80;;;;;;;13.20;79.90;98983.75;5053188;28;20559;-51
2022/07/05 03:40:33;;;;;;;5.73;2.00;;;;;;;13.23;80.15;98984.28;5054828;28;20214;-50
2022/07/05 03:43:01;;;;;;;3.10;1.70;;;;;;;13.29;81.16;98990.66;5054717;28;20206;-50
2022/07/05 03:45:33;;;;;;;2.93;1.60;;;;;;;13.29;80.71;98990.66;5053094;28;20623;-50
2022/07/05 03:48:01;;;;;;;3.70;1.73;;;;;;;13.33;80.12;98991.16;5054477;28;20180;-53
2022/07/05 03:50:31;;;;;;;2.77;1.73;;;;;;;13.26;80.09;98988.38;5052844;28;20220;-51
2022/07/05 03:52:59;;;;;;;4.53;1.80;;;;;;;13.30;79.05;98994.94;5053116;28;20249;-50
2022/07/05 03:55:28;;;;;;;3.50;1.90;;;;;;;13.26;80.36;98996.22;5052864;28;20210;-50
2022/07/05 03:57:56;;;;;;;3.67;1.80;;;;;;;13.33;80.48;98999.84;5052932;28;20198;-49
2022/07/05 04:00:23;;;;;;;3.50;1.60;;;;;;;13.31;79.51;99004.44;5051832;28;20212;-50
2022/07/05 04:02:59;;;;;;;7.33;1.90;;;;;;;13.36;80.04;99006.56;5053049;28;21002;-50
2022/07/05 04:05:27;;;;;;;3.43;1.60;;;;;;;13.34;80.10;99006.75;5052756;28;20210;-51
2022/07/05 04:07:57;;;;;;;3.73;2.00;;;;;;;13.41;81.30;99017.41;5052768;28;20659;-51
2022/07/05 04:10:30;;;;;;;2.40;1.80;;;;;;;13.36;80.19;99023.13;5052637;28;20210;-50
2022/07/05 04:12:57;;;;;;;4.70;1.67;;;;;;;13.32;80.61;99024.44;5052594;28;20187;-50
2022/07/05 04:15:26;;;;;;;1.90;1.70;;;;;;;13.32;80.71;99029.66;5052500;28;20669;-50
2022/07/05 04:17:57;;;;;;;2.47;1.80;;;;;;;13.38;81.88;99030.81;5052545;28;20194;-50
2022/07/05 04:20:27;;;;;;;3.13;2.03;;;;;;;13.45;81.20;99031.88;5053915;28;20200;-50
2022/07/05 04:22:58;;;;;;;3.10;1.87;;;;;;;13.45;80.58;99042.34;5052460;28;20195;-50
2022/07/05 04:25:26;;;;;;;2.63;2.10;;;;;;;13.49;80.71;99040.25;5052737;28;20623;-50
2022/07/05 04:28:04;;;;;;;4.50;1.80;;;;;;;13.55;81.45;99053.53;5053973;28;20708;-50
2022/07/05 04:30:34;;;;;;;6.10;1.77;;;;;;;13.52;81.17;99048.59;5052256;28;20699;-50
2022/07/05 04:33:03;;;;;;;4.10;1.70;;;;;;;13.57;80.91;99056.00;5052244;28;20664;-51
2022/07/05 04:35:30;;;;;;;3.50;1.53;;;;;;;13.58;81.04;99047.16;5051902;28;20205;-50
2022/07/05 04:37:59;;;;;;;2.63;1.30;;;;;;;13.64;80.20;99049.16;5052243;28;20198;-51
2022/07/05 04:40:28;;;;;;;2.37;1.70;;;;;;;13.64;80.41;99054.41;5052197;28;20219;-50
2022/07/05 04:42:57;;;;;;;3.03;1.60;;;;;;;13.68;80.47;99047.84;5052077;28;20192;-50
2022/07/05 04:45:25;;;;;;;4.67;2.10;;;;;;;13.62;80.39;99051.09;5051951;28;20202;-50
2022/07/05 04:47:52;;;;;;;5.57;2.17;;;;;;;13.61;81.13;99051.25;5052569;28;20583;-50
2022/07/05 04:50:23;;;;;;;2.70;1.63;;;;;;;13.62;81.21;99056.34;5051990;28;20230;-50
2022/07/05 04:52:51;;;;;;;3.33;1.50;;;;;;;13.61;81.39;99053.88;5050734;28;20288;-51
2022/07/05 04:55:38;;;;;;;4.27;1.53;;;;;;;13.63;81.85;99054.53;5045680;28;20207;-50
2022/07/05 04:58:24;;;;;;;2.73;1.80;;;;;;;13.69;82.81;99054.75;5053419;28;20213;-49
2022/07/05 05:00:51;;;;;;;2.43;1.73;;;;;;;13.72;82.65;99054.41;5046795;28;20219;-50
2022/07/05 05:03:19;;;;;;;2.87;1.80;;;;;;;13.76;82.31;99054.09;5039822;28;20192;-50
2022/07/05 05:05:46;;;;;;;2.70;1.90;;;;;;;13.76;82.15;99048.84;5032811;28;20196;-51
2022/07/05 05:08:13;;;;;;;5.53;1.83;;;;;;;13.81;82.18;99046.53;5032879;28;20196;-52
2022/07/05 05:10:42;;;;;;;2.63;1.90;;;;;;;13.83;81.77;99050.66;5031221;28;20226;-50
2022/07/05 05:13:10;;;;;;;3.63;2.23;;;;;;;13.86;82.98;99052.97;5032954;28;20193;-50
2022/07/05 05:15:37;;;;;;;3.90;1.97;;;;;;;13.97;82.07;99048.38;5048430;28;20243;-50
2022/07/05 05:18:05;;;;;;;4.20;2.03;;;;;;;14.00;82.25;99050.69;5033034;28;20636;-50
2022/07/05 05:20:32;;;;;;;3.30;1.87;;;;;;;14.02;81.75;99049.53;5044067;28;20206;-51
2022/07/05 05:23:00;;;;;;;3.20;1.70;;;;;;;14.04;81.48;99049.38;5042966;28;20205;-50
2022/07/05 05:25:30;;;;;;;3.50;1.87;;;;;;;14.13;80.99;99058.06;5051029;28;20196;-50
2022/07/05 05:27:59;;;;;;;5.10;2.03;;;;;;;14.14;80.81;99057.91;5052545;28;20262;-50
2022/07/05 05:30:26;;;;;;;3.03;1.77;;;;;;;14.22;81.04;99059.72;5041208;28;20222;-51
2022/07/05 05:32:53;;;;;;;3.23;1.73;;;;;;;14.27;80.68;99062.66;5047413;28;20509;-51
2022/07/05 05:35:23;;;;;;;2.50;2.00;;;;;;;14.33;80.60;99066.44;5043896;28;20204;-50
2022/07/05 05:37:51;;;;;;;2.80;1.63;;;;;;;14.41;80.96;99066.44;5044018;28;20615;-50
2022/07/05 05:40:19;;;;;;;4.43;1.60;;;;;;;14.50;80.65;99075.13;5043817;28;20218;-50
2022/07/05 05:42:46;;;;;;;3.37;1.80;;;;;;;14.59;80.82;99079.41;5046969;28;20646;-50
2022/07/05 05:45:15;;;;;;;3.03;2.10;;;;;;;14.78;80.36;99077.44;5048772;28;20186;-51
2022/07/05 05:47:47;;;;;;;5.67;2.10;;;;;;;15.16;79.97;99077.66;5045429;28;20207;-50
2022/07/05 05:50:15;;;;;;;3.67;1.90;;;;;;;15.61;78.69;99085.84;5035373;28;20250;-50
2022/07/05 05:52:42;;;;;;;2.47;1.40;;;;;;;15.96;76.76;99084.72;5047305;28;20617;-50
2022/07/05 05:55:09;;;;;;;2.63;1.60;;;;;;;16.21;74.87;99090.63;5040671;28;20234;-50
2022/07/05 05:57:36;;;;;;;7.00;1.97;;;;;;;16.42;73.48;99092.63;5052010;28;20213;-50
2022/07/05 06:00:06;;;;;;;3.70;1.70;;;;;;;16.62;72.25;99098.22;5052204;28;20205;-51
2022/07/05 06:02:39;;;;;;;3.20;1.80;;;;;;;16.81;71.82;99096.06;5052203;28;20237;-51
2022/07/05 06:05:08;;;;;;;5.33;1.93;;;;;;;17.01;71.19;99103.47;5052121;28;20211;-50
2022/07/05 06:07:54;;;;;;;3.10;2.20;;;;;;;17.19;69.93;99103.13;5052438;28;20188;-51
2022/07/05 06:10:24;;;;;;;3.33;1.63;;;;;;;17.40;71.00;99108.47;5051854;28;20746;-51
2022/07/05 06:12:53;;;;;;;4.73;1.90;;;;;;;17.56;68.89;99109.25;5052171;28;20226;-50
2022/07/05 06:15:21;;;;;;;3.47;1.63;;;;;;;17.80;68.63;99109.94;5050751;28;20226;-50
2022/07/05 06:17:51;;;;;;;4.73;1.80;;;;;;;17.97;67.67;99105.28;5052102;28;20185;-51
2022/07/05 06:20:19;;;;;;;3.73;1.70;;;;;;;18.14;66.70;99106.69;5051989;28;20267;-51
2022/07/05 06:22:48;;;;;;;5.17;1.73;;;;;;;18.29;67.10;99113.72;5052082;28;20193;-51
2022/07/05 06:25:15;;;;;;;2.13;1.70;;;;;;;18.48;64.75;99120.22;5055299;28;20248;-50
2022/07/05 06:27:43;;;;;;;5.10;1.90;;;;;;;18.65;64.95;99112.81;5055944;28;20660;-51
2022/07/05 06:30:14;;;;;;;2.60;1.67;;;;;;;18.79;64.27;99124.31;5055670;28;20209;-50
2022/07/05 06:32:42;;;;;;;2.87;1.70;;;;;;;18.97;63.68;99123.88;5055994;28;20190;-50
2022/07/05 06:35:12;;;;;;;7.70;1.70;;;;;;;19.05;62.49;99122.88;5055844;28;20500;-51
2022/07/05 06:37:43;;;;;;;3.43;1.63;;;;;;;19.14;61.61;99126.19;5055787;28;20182;-50
2022/07/05 06:40:12;;;;;;;4.00;1.63;;;;;;;19.25;61.55;99125.66;5055663;28;20589;-50
2022/07/05 06:42:39;;;;;;;3.43;1.73;;;;;;;19.41;61.69;99127.16;5055644;28;20593;-50
2022/07/05 06:45:07;;;;;;;2.63;1.80;;;;;;;19.51;58.77;99126.78;5055714;28;20188;-51
2022/07/05 06:47:34;;;;;;;3.30;1.90;;;;;;;19.51;58.10;99129.44;5054386;28;20209;-50
2022/07/05 06:50:03;;;;;;;4.33;1.60;;;;;;;19.68;59.50;99134.41;5053956;28;20696;-50
2022/07/05 06:52:32;;;;;;;3.30;1.73;;;;;;;19.81;60.58;99137.09;5055480;28;20270;-51
2022/07/05 06:55:00;;;;;;;5.17;1.93;;;;;;;19.80;60.19;99130.19;5055647;28;20185;-50
2022/07/05 06:57:27;;;;;;;2.60;1.80;;;;;;;19.94;59.82;99128.41;5055268;28;20271;-51
2022/07/05 06:59:54;;;;;;;2.13;1.60;;;;;;;20.06;58.68;99132.09;5055094;28;20188;-50
2022/07/05 07:02:21;;;;;;;3.33;1.70;;;;;;;20.12;58.89;99127.84;5055455;28;20198;-50
2022/07/05 07:04:50;;;;;;;3.80;1.67;;;;;;;20.15;58.71;99135.38;5055511;28;20184;-50
2022/07/05 07:10:04;;;;;;;4.67;1.83;;;;;;;20.12;57.11;99135.81;5054951;28;20223;-50
2022/07/05 07:12:31;;;;;;;3.77;2.03;;;;;;;20.30;56.58;99145.00;5055174;28;20185;-51
2022/07/05 07:14:58;;;;;;;3.43;2.23;;;;;;;20.30;55.95;99145.00;5055144;28;20196;-50
2022/07/05 07:17:25;;;;;;;6.53;2.10;;;;;;;20.32;55.96;99143.78;5053658;28;20201;-50
2022/07/05 07:19:52;;;;;;;2.37;1.70;;;;;;;20.46;56.94;99146.47;5055106;28;20184;-50
2022/07/05 07:22:20;;;;;;;5.30;2.10;;;;;;;20.49;55.72;99151.34;5047242;28;20267;-51
2022/07/05 07:24:47;;;;;;;2.53;1.60;;;;;;;20.47;56.13;99159.50;5054822;28;20189;-50
2022/07/05 07:27:16;;;;;;;2.43;1.80;;;;;;;20.30;56.33;99155.59;5054543;28;20228;-50
2022/07/05 07:29:43;;;;;;;4.10;2.00;;;;;;;20.43;56.20;99160.13;5054581;28;20213;-50
2022/07/05 07:32:10;;;;;;;2.80;1.90;;;;;;;20.44;55.88;99162.56;5046311;28;20656;-50
2022/07/05 07:34:38;;;;;;;5.20;2.07;;;;;;;20.45;55.01;99168.69;5045842;28;20816;-51
2022/07/05 07:37:05;;;;;;;5.73;1.77;;;;;;;20.54;55.57;99156.88;5045985;28;20211;-51
2022/07/05 07:39:33;;;;;;;4.67;2.20;;;;;;;20.49;55.08;99164.59;5050948;28;20278;-51
2022/07/05 07:42:00;;;;;;;2.43;1.83;;;;;;;20.72;55.23;99169.50;5049873;28;20216;-50
2022/07/05 07:44:28;;;;;;;6.70;1.87;;;;;;;20.86;55.85;99165.03;5046310;28;20189;-50
2022/07/05 07:46:55;;;;;;;4.13;1.97;;;;;;;20.91;55.23;99173.22;5054218;28;20825;-50
2022/07/05 07:49:22;;;;;;;5.30;2.07;;;;;;;21.03;53.34;99172.59;5052312;28;20208;-51
2022/07/05 07:51:49;;;;;;;4.50;2.07;;;;;;;20.86;53.38;99166.88;5042255;28;20217;-51
2022/07/05 07:54:17;;;;;;;6.53;2.13;;;;;;;20.96;53.74;99177.91;5044893;28;20643;-51
2022/07/05 07:56:44;;;;;;;4.27;1.90;;;;;;;21.03;51.97;99175.25;5045928;28;20191;-50
2022/07/05 07:59:12;;;;;;;4.20;2.03;;;;;;;21.04;52.31;99166.25;5060625;28;20200;-51
2022/07/05 08:01:40;;;;;;;6.80;1.97;;;;;;;20.92;52.30;99174.84;5052710;28;20611;-50
2022/07/05 08:04:08;;;;;;;6.83;2.00;;;;;;;21.02;51.39;99171.78;5046470;28;20658;-51
2022/07/05 08:06:35;;;;;;;5.17;2.20;;;;;;;20.86;51.04;99175.66;5045385;28;20595;-51
2022/07/05 08:09:02;;;;;;;4.47;2.10;;;;;;;21.08;53.57;99170.13;5045821;28;20693;-51
2022/07/05 08:11:30;;;;;;;9.70;2.17;;;;;;;20.97;51.49;99174.25;5047689;28;20599;-50
2022/07/05 08:13:58;;;;;;;9.93;2.20;;;;;;;21.04;51.67;99175.06;5045008;28;20198;-51
2022/07/05 08:16:24;;;;;;;6.07;1.80;;;;;;;21.09;52.86;99172.59;5048150;28;20195;-51
2022/07/05 08:21:38;;;;;;;5.40;2.10;;;;;;;21.34;51.29;99174.56;5046870;28;20594;-50
2022/07/05 08:24:07;;;;;;;4.57;2.03;;;;;;;21.38;50.85;99177.63;5045714;28;20199;-52
2022/07/05 08:26:35;;;;;;;3.87;1.80;;;;;;;21.37;52.54;99174.16;5047014;28;20203;-54
2022/07/05 08:29:04;;;;;;;7.93;2.40;;;;;;;21.49;50.07;99173.50;5053693;28;20199;-51
2022/07/05 08:31:35;;;;;;;4.37;2.00;;;;;;;21.42;48.51;99180.69;5052076;28;20230;-53
2022/07/05 08:34:04;;;;;;;2.80;1.60;;;;;;;21.41;49.77;99177.22;5053900;28;20182;-53
2022/07/05 08:36:32;;;;;;;4.10;1.80;;;;;;;21.59;52.15;99181.88;5053318;28;20202;-51
2022/07/05 08:38:59;;;;;;;3.57;2.00;;;;;;;21.72;48.92;99174.91;5046773;28;20189;-51
2022/07/05 08:41:29;;;;;;;3.97;1.63;;;;;;;21.69;49.99;99170.84;5042985;28;20209;-51
2022/07/05 08:43:58;;;;;;;4.67;1.93;;;;;;;21.76;49.01;99178.78;5050537;28;20180;-51
2022/07/05 08:46:26;;;;;;;6.20;2.00;;;;;;;21.74;48.87;99170.19;5052956;28;20244;-52
2022/07/05 08:48:56;;;;;;;5.07;2.27;;;;;;;21.73;49.01;99171.22;5053351;28;20202;-52
2022/07/05 08:51:28;;;;;;;4.60;1.93;;;;;;;21.80;50.10;99172.81;5053078;28;20664;-50
2022/07/05 08:53:56;;;;;;;3.40;2.00;;;;;;;21.79;49.32;99171.19;5053413;28;20191;-52
2022/07/05 08:56:24;;;;;;;5.50;2.13;;;;;;;21.64;50.30;99174.13;5049539;28;20269;-50
2022/07/05 08:58:51;;;;;;;2.10;1.70;;;;;;;21.75;48.96;99164.66;5044833;28;20763;-52
2022/07/05 09:01:19;;;;;;;4.15;1.58;;;;;;;21.90;50.87;99175.03;5049714;28;20424;-50
2022/07/05 09:03:49;;;;;;;5.33;1.70;;;;;;;21.95;49.37;99172.56;5052707;28;20593;-52
2022/07/05 09:06:19;;;;;;;2.67;1.80;;;;;;;22.08;48.96;99165.56;5052522;28;20200;-51
2022/07/05 09:09:07;;;;;;;2.13;1.87;;;;;;;22.12;48.96;99167.56;5052952;28;20202;-50
2022/07/05 09:11:37;;;;;;;3.03;1.80;;;;;;;22.22;49.12;99167.09;5052344;28;20217;-50
2022/07/05 09:14:06;;;;;;;4.70;1.73;;;;;;;22.45;47.47;99168.41;5052446;28;20192;-50
2022/07/05 09:16:34;;;;;;;2.07;1.80;;;;;;;22.31;47.46;99180.94;5052369;28;20192;-50
2022/07/05 09:19:06;;;;;;;1.70;1.57;;;;;;;22.31;48.17;99169.47;5052540;28;20259;-50
2022/07/05 09:21:35;;;;;;;4.97;1.87;;;;;;;22.50;47.67;99173.88;5052119;28;20231;-50
2022/07/05 09:24:03;;;;;;;3.97;2.07;;;;;;;22.57;48.77;99179.19;5052342;28;20185;-50
2022/07/05 09:26:35;;;;;;;3.47;2.00;;;;;;;22.56;46.53;99173.03;5052331;28;20299;-51
2022/07/05 09:29:04;;;;;;;6.17;3.33;;;;;;;22.53;47.08;99183.28;5052298;28;20187;-51
2022/07/05 09:31:32;;;;;;;8.17;2.33;;;;;;;22.72;46.87;99180.72;5052072;28;20221;-50
2022/07/05 09:34:07;;;;;;;6.83;1.70;;;;;;;22.64;47.24;99179.13;5052084;28;20192;-50
2022/07/05 09:36:55;;;;;;;2.87;1.70;;;;;;;22.66;47.56;99174.38;5052030;28;20200;-50
2022/07/05 09:39:40;;;;;;;4.87;1.93;;;;;;;22.75;46.85;99186.41;5052102;28;20349;-50
2022/07/05 09:42:14;;;;;;;2.83;1.70;;;;;;;22.78;46.09;99180.66;5052000;28;20557;-50
2022/07/05 09:44:44;;;;;;;3.07;1.47;;;;;;;22.84;45.03;99174.44;5052357;28;20617;-52
2022/07/05 09:47:14;;;;;;;2.43;1.30;;;;;;;23.00;45.51;99178.41;5050614;28;20228;-52
2022/07/05 09:49:46;;;;;;;3.47;1.50;;;;;;;23.25;45.29;99185.56;5050498;28;20194;-50
2022/07/05 09:52:28;;;;;;;2.83;1.73;;;;;;;23.10;45.92;99188.56;5050669;28;20655;-50
2022/07/05 09:55:03;;;;;;;3.07;1.60;;;;;;;23.23;45.72;99184.97;5052508;28;20657;-50
2022/07/05 09:57:33;;;;;;;5.30;1.70;;;;;;;23.39;44.91;99175.59;5051799;28;20614;-53
2022/07/05 10:00:03;;;;;;;2.60;1.47;;;;;;;23.25;44.41;99184.78;5051175;28;20195;-51
2022/07/05 10:02:36;;;;;;;2.63;1.50;;;;;;;23.33;45.97;99176.47;5051991;28;20552;-50
2022/07/05 10:05:11;;;;;;;4.67;2.13;;;;;;;23.42;44.50;99180.47;5051699;28;20187;-51
2022/07/05 10:07:41;;;;;;;3.47;1.70;;;;;;;23.48;42.99;99184.09;5051729;28;20187;-51
2022/07/05 10:10:09;;;;;;;4.07;1.40;;;;;;;23.53;43.60;99183.44;5051586;28;20626;-51
2022/07/05 10:12:39;;;;;;;3.27;1.83;;;;;;;23.53;43.51;99181.59;5051995;28;20210;-50
2022/07/05 10:15:10;;;;;;;2.10;1.40;;;;;;;23.70;43.35;99189.00;5052018;28;20246;-52
2022/07/05 10:17:41;;;;;;;2.83;1.47;;;;;;;23.76;42.16;99179.28;5051766;28;20202;-51
2022/07/05 10:20:13;;;;;;;2.40;1.63;;;;;;;23.80;42.36;99173.28;5051570;28;20210;-51
2022/07/05 10:22:42;;;;;;;5.80;1.50;;;;;;;23.77;40.91;99175.56;5051627;28;20616;-51
2022/07/05 10:25:09;;;;;;;3.70;1.43;;;;;;;23.78;40.92;99182.53;5051714;28;20207;-51
2022/07/05 10:27:38;;;;;;;3.70;1.20;;;;;;;23.84;40.94;99181.63;5051521;28;20186;-50
2022/07/05 10:30:07;;;;;;;2.70;1.30;;;;;;;23.96;40.55;99176.34;5051240;28;20207;-50
2022/07/05 10:32:36;;;;;;;3.97;1.40;;;;;;;23.92;39.32;99168.00;5051502;28;20187;-50
2022/07/05 10:35:04;;;;;;;5.13;1.40;;;;;;;24.00;40.76;99173.06;5051433;28;20192;-51
2022/07/05 10:37:33;;;;;;;2.20;1.10;;;;;;;24.29;38.60;99167.94;5050728;28;20434;-50
2022/07/05 10:40:02;;;;;;;2.67;1.20;;;;;;;24.37;37.57;99168.66;5051334;28;20187;-51
2022/07/05 10:42:35;;;;;;;3.43;1.10;;;;;;;24.34;38.50;99167.25;5051600;28;20204;-50
2022/07/05 10:45:23;;;;;;;4.70;1.50;;;;;;;24.43;38.27;99173.88;5051901;28;20188;-51
2022/07/05 10:48:18;;;;;;;2.90;1.40;;;;;;;24.39;40.32;99167.38;5051339;28;20191;-51
2022/07/05 10:50:47;;;;;;;3.00;1.20;;;;;;;24.43;39.11;99167.72;5051125;28;20283;-51
2022/07/05 10:53:15;;;;;;;1.13;1.00;;;;;;;24.33;39.46;99170.94;5051312;28;20187;-50
2022/07/05 10:55:54;;;;;;;3.93;1.30;;;;;;;24.41;40.58;99170.63;5051619;28;20233;-51
2022/07/05 10:58:27;;;;;;;3.27;1.63;;;;;;;24.45;39.61;99171.81;5051580;28;20180;-51
2022/07/05 11:01:45;;;;;;;1.87;1.00;;;;;;;24.47;38.68;99175.06;5051166;28;20209;-50
2022/07/05 11:04:38;;;;;;;2.87;1.30;;;;;;;24.62;40.27;99171.94;5048818;28;20215;-50
2022/07/05 11:07:05;;;;;;;1.97;1.20;;;;;;;24.61;38.56;99164.97;5051144;28;20215;-53
2022/07/05 11:09:32;;;;;;;1.80;1.20;;;;;;;24.80;39.13;99172.13;5051930;28;20184;-51
2022/07/05 11:12:18;;;;;;;4.43;1.27;;;;;;;24.86;39.40;99168.53;5054738;28;20212;-52
2022/07/05 11:14:47;;;;;;;2.37;1.00;;;;;;;25.04;38.92;99163.03;5055027;28;20190;-52
2022/07/05 11:17:25;;;;;;;4.47;1.50;;;;;;;24.87;37.94;99162.94;5054758;28;20730;-50
2022/07/05 11:20:14;;;;;;;2.87;1.33;;;;;;;25.06;38.08;99168.97;5054653;28;20188;-50
2022/07/05 11:23:00;;;;;;;6.43;1.20;;;;;;;24.78;38.70;99166.19;5054744;28;20198;-52
2022/07/05 11:25:30;;;;;;;2.93;1.10;;;;;;;24.71;37.71;99164.41;5053282;28;20541;-51
2022/07/05 11:28:08;;;;;;;2.00;1.07;;;;;;;24.88;38.16;99163.78;5054766;28;20189;-53
2022/07/05 11:30:51;;;;;;;1.50;1.10;;;;;;;25.01;39.51;99160.03;5054231;28;20204;-53
2022/07/05 11:33:42;;;;;;;3.87;0.80;;;;;;;25.09;35.67;99159.69;5054477;28;20197;-50
2022/07/05 11:36:26;;;;;;;2.03;0.80;;;;;;;25.00;35.80;99166.44;5054346;28;20202;-52
2022/07/05 11:39:16;;;;;;;1.50;0.80;;;;;;;25.12;35.37;99161.91;5054393;28;20278;-50
2022/07/05 11:41:45;;;;;;;3.17;0.90;;;;;;;25.41;34.51;99161.16;5054172;28;20196;-50
2022/07/05 11:44:14;;;;;;;2.87;0.87;;;;;;;25.36;34.72;99148.50;5054225;28;20180;-51
2022/07/05 11:46:42;;;;;;;1.60;0.90;;;;;;;25.31;35.63;99151.88;5054082;28;20206;-51
2022/07/05 11:49:10;;;;;;;5.00;1.00;;;;;;;25.42;35.46;99144.91;5054249;28;20273;-50
2022/07/05 11:51:39;;;;;;;1.33;0.90;;;;;;;25.43;34.97;99143.03;5053806;28;20212;-50
2022/07/05 11:54:09;;;;;;;3.43;1.00;;;;;;;25.75;36.36;99151.44;5054310;28;20188;-52